Morrison, Iowa
Current Conditions -  °F | °C
As of 1:53 PM on Friday 19 Dec 2014 (Local Time) from KMIW Reporting Station
Overcast Overcast  
Wind Chill: 22°   Ceiling: 4100
Heat Index: 30°   Visibility: 8mi
Dew Point: 24°   Wind: 9mph
Humidity: 79%   Direction: 170°S
Pressure: 30.22"   Gusts: NA
Location:  42.34°N, 92.67°W
Report Text: KMIW 191953Z AUTO 17008KT 8SM OVC041 M01/M04 A3022 RMK AO2 SLP245 T10111044
Loading
Personal Weather Stations






























Interactive Weather Map New forecast layout! Learn more

10-Day Weather Forecast

Advertisements
Track Severe Weather on mobile